Aviation Digital Data Service (ADDS)

Output produced by METARs form (1915 UTC 23 July 2016)
found at http://www.aviationweather.gov/adds/metars/
 
SEGU 231900Z 07005KT 9999 FEW033 30/21 Q1011 NOSIG RMK A2985
TAF COR SEGU 231645Z 2318/2418 15006KT 9999 SCT026 
     FM240000 22012KT 9999 FEW020 SCT090 
     FM240700 22007KT 9999 SCT020 BKN090 
     FM241300 19005KT 9999 SCT023 SCT100 TX31/2320Z TN21/2410Z
       
SEMT 231900Z 17005KT 9999 FEW020 27/21 Q1012 RMK A2989
TAF COR SEMT 231645Z 2318/2418 21012KT 9999 SCT030 
     FM240000 20006KT 9999 BKN030 TX30/2319Z TN23/2410ZZ